createdAt,value
2018-12-21T00:00:42.634Z,1020.49
2018-12-21T00:01:42.761Z,1020.48
2018-12-21T00:02:44.766Z,1020.56
2018-12-21T00:03:42.398Z,1020.51
2018-12-21T00:04:42.420Z,1020.48
2018-12-21T00:05:42.752Z,1020.47
2018-12-21T00:06:42.437Z,1020.46
2018-12-21T00:07:42.496Z,1020.48
2018-12-21T00:08:42.338Z,1020.44
2018-12-21T00:09:42.298Z,1020.39
2018-12-21T00:10:42.607Z,1020.34
2018-12-21T00:11:42.483Z,1020.37
2018-12-21T00:12:42.705Z,1020.37
2018-12-21T00:13:42.456Z,1020.45
2018-12-21T00:14:42.520Z,1020.39
2018-12-21T00:15:42.486Z,1020.45
2018-12-21T00:16:42.964Z,1020.46
2018-12-21T00:17:42.736Z,1020.46
2018-12-21T00:18:42.689Z,1020.51
2018-12-21T00:19:42.870Z,1020.58
2018-12-21T00:20:42.752Z,1020.46
2018-12-21T00:21:42.739Z,1020.5
2018-12-21T00:22:42.569Z,1020.48
2018-12-21T00:23:42.845Z,1020.45
2018-12-21T00:24:42.376Z,1020.46
2018-12-21T00:25:42.532Z,1020.46
2018-12-21T00:26:42.695Z,1020.49
2018-12-21T00:27:42.571Z,1020.47
2018-12-21T00:28:42.404Z,1020.42
2018-12-21T00:29:42.835Z,1020.43
2018-12-21T00:30:42.306Z,1020.41
2018-12-21T00:31:43.118Z,1020.37
2018-12-21T00:32:42.219Z,1020.36
2018-12-21T00:33:42.952Z,1020.29
2018-12-21T00:34:42.872Z,1020.34
2018-12-21T00:35:42.350Z,1020.26
2018-12-21T00:36:42.426Z,1020.27
2018-12-21T00:37:42.394Z,1020.26
2018-12-21T00:38:43.054Z,1020.29
2018-12-21T00:39:42.324Z,1020.26
2018-12-21T00:40:42.904Z,1020.24
2018-12-21T00:41:42.511Z,1020.21
2018-12-21T00:42:42.465Z,1020.11
2018-12-21T00:43:42.710Z,1020.21
2018-12-21T00:44:42.808Z,1020.14
2018-12-21T00:45:42.426Z,1020.12
2018-12-21T00:46:42.337Z,1020.1
2018-12-21T00:47:42.962Z,1020.04
2018-12-21T00:48:42.656Z,1020.05
2018-12-21T00:49:42.414Z,1020.05
2018-12-21T00:50:42.976Z,1019.96
2018-12-21T00:51:42.925Z,1019.93
2018-12-21T00:52:42.757Z,1019.93
2018-12-21T00:53:42.445Z,1019.89
2018-12-21T00:54:42.345Z,1019.93
2018-12-21T00:55:42.457Z,1019.89
2018-12-21T00:56:42.730Z,1019.93
2018-12-21T00:57:42.291Z,1019.88
2018-12-21T00:58:42.424Z,1019.84
2018-12-21T00:59:42.329Z,1019.84
2018-12-21T01:00:42.639Z,1019.89
2018-12-21T01:01:42.443Z,1019.78
2018-12-21T01:02:42.856Z,1019.8
2018-12-21T01:03:42.369Z,1019.83
2018-12-21T01:04:42.316Z,1019.86
2018-12-21T01:05:42.718Z,1019.76
2018-12-21T01:06:42.334Z,1019.78
2018-12-21T01:07:42.777Z,1019.77
2018-12-21T01:08:42.329Z,1019.7
2018-12-21T01:09:42.675Z,1019.75
2018-12-21T01:10:42.456Z,1019.72
2018-12-21T01:11:42.376Z,1019.76
2018-12-21T01:12:42.328Z,1019.78
2018-12-21T01:13:42.624Z,1019.78
2018-12-21T01:14:42.770Z,1019.86
2018-12-21T01:15:42.436Z,1019.83
2018-12-21T01:16:42.523Z,1019.88
2018-12-21T01:17:42.330Z,1019.98
2018-12-21T01:18:42.769Z,1019.98
2018-12-21T01:19:43.221Z,1019.94
2018-12-21T01:20:42.791Z,1019.99
2018-12-21T01:21:42.353Z,1020
2018-12-21T01:22:42.345Z,1019.94
2018-12-21T01:23:42.742Z,1020.01
2018-12-21T01:24:42.381Z,1019.99
2018-12-21T01:25:42.729Z,1020.02
2018-12-21T01:26:42.359Z,1020
2018-12-21T01:27:43.312Z,1019.98
2018-12-21T01:28:42.621Z,1019.99
2018-12-21T01:29:42.733Z,1020.06
2018-12-21T01:30:42.536Z,1020.05
2018-12-21T01:31:42.410Z,1020.07
2018-12-21T01:32:42.490Z,1020
2018-12-21T01:33:42.300Z,1020
2018-12-21T01:34:42.811Z,1020
2018-12-21T01:35:42.486Z,1019.98
2018-12-21T01:36:42.373Z,1019.95
2018-12-21T01:37:42.335Z,1019.98
2018-12-21T01:38:42.391Z,1019.96
2018-12-21T01:39:42.567Z,1019.93
2018-12-21T01:40:42.355Z,1019.89
2018-12-21T01:41:42.533Z,1019.93
2018-12-21T01:42:42.700Z,1019.96
2018-12-21T01:43:42.451Z,1019.98
2018-12-21T01:44:42.325Z,1019.97
2018-12-21T01:45:42.421Z,1019.97
2018-12-21T01:46:42.549Z,1019.99
2018-12-21T01:47:43.182Z,1019.93
2018-12-21T01:48:42.261Z,1019.92
2018-12-21T01:49:42.520Z,1019.91
2018-12-21T01:50:42.599Z,1019.89
2018-12-21T01:51:47.552Z,1019.89
2018-12-21T01:52:42.480Z,1019.82
2018-12-21T01:53:42.352Z,1019.83
2018-12-21T01:54:42.452Z,1019.8
2018-12-21T01:55:43.162Z,1019.74
2018-12-21T01:56:42.742Z,1019.8
2018-12-21T01:57:43.109Z,1019.75
2018-12-21T01:58:42.401Z,1019.7
2018-12-21T01:59:42.361Z,1019.65
2018-12-21T02:00:42.751Z,1019.63
2018-12-21T02:01:42.670Z,1019.64
2018-12-21T02:02:42.268Z,1019.6
2018-12-21T02:03:42.768Z,1019.58
2018-12-21T02:04:42.696Z,1019.62
2018-12-21T02:05:42.788Z,1019.58
2018-12-21T02:06:42.546Z,1019.57
2018-12-21T02:07:42.393Z,1019.53
2018-12-21T02:08:42.276Z,1019.56
2018-12-21T02:09:42.627Z,1019.61
2018-12-21T02:10:42.283Z,1019.58
2018-12-21T02:11:42.234Z,1019.7
2018-12-21T02:12:42.645Z,1019.62
2018-12-21T02:13:42.635Z,1019.63
2018-12-21T02:14:42.568Z,1019.66
2018-12-21T02:15:42.609Z,1019.66
2018-12-21T02:16:42.398Z,1019.7
2018-12-21T02:17:42.791Z,1019.65
2018-12-21T02:18:42.694Z,1019.65
2018-12-21T02:19:42.450Z,1019.62
2018-12-21T02:20:42.351Z,1019.66
2018-12-21T02:21:42.502Z,1019.7
2018-12-21T02:22:42.426Z,1019.7
2018-12-21T02:23:42.439Z,1019.6
2018-12-21T02:24:42.697Z,1019.67
2018-12-21T02:25:43.349Z,1019.68
2018-12-21T02:26:42.268Z,1019.7
2018-12-21T02:27:42.394Z,1019.7
2018-12-21T02:28:42.413Z,1019.71
2018-12-21T02:29:42.265Z,1019.7
2018-12-21T02:30:42.328Z,1019.72
2018-12-21T02:31:42.833Z,1019.67
2018-12-21T02:32:43.395Z,1019.7
2018-12-21T02:33:42.787Z,1019.68
2018-12-21T02:34:42.438Z,1019.65
2018-12-21T02:35:42.333Z,1019.62
2018-12-21T02:36:42.432Z,1019.58
2018-12-21T02:37:42.520Z,1019.56
2018-12-21T02:38:42.349Z,1019.45
2018-12-21T02:39:42.488Z,1019.45
2018-12-21T02:40:42.567Z,1019.41
2018-12-21T02:41:42.472Z,1019.41
2018-12-21T02:42:42.310Z,1019.44
2018-12-21T02:43:42.414Z,1019.42
2018-12-21T02:44:42.304Z,1019.36
2018-12-21T02:45:43.000Z,1019.38
2018-12-21T02:46:42.203Z,1019.27
2018-12-21T02:47:42.256Z,1019.3
2018-12-21T02:48:42.274Z,1019.25
2018-12-21T02:49:42.807Z,1019.18
2018-12-21T02:50:42.517Z,1019.19
2018-12-21T02:51:42.382Z,1019.17
2018-12-21T02:52:42.527Z,1019.07
2018-12-21T02:53:42.396Z,1019.01
2018-12-21T02:54:42.461Z,1018.99
2018-12-21T02:55:42.834Z,1018.96
2018-12-21T02:56:42.189Z,1018.93
2018-12-21T02:57:42.605Z,1018.97
2018-12-21T02:58:42.702Z,1018.93
2018-12-21T02:59:42.716Z,1018.88
2018-12-21T03:00:42.341Z,1018.89
2018-12-21T03:01:42.897Z,1018.89
2018-12-21T03:02:42.325Z,1018.9
2018-12-21T03:03:42.724Z,1018.86
2018-12-21T03:04:43.160Z,1018.87
2018-12-21T03:05:42.251Z,1018.81
2018-12-21T03:06:42.210Z,1018.8
2018-12-21T03:07:42.463Z,1018.75
2018-12-21T03:08:42.525Z,1018.8
2018-12-21T03:09:42.690Z,1018.76
2018-12-21T03:10:42.254Z,1018.76
2018-12-21T03:11:42.373Z,1018.73
2018-12-21T03:12:42.692Z,1018.68
2018-12-21T03:13:43.009Z,1018.68
2018-12-21T03:14:43.125Z,1018.71
2018-12-21T03:15:42.419Z,1018.67
2018-12-21T03:16:42.687Z,1018.63
2018-12-21T03:17:42.786Z,1018.59
2018-12-21T03:18:42.276Z,1018.56
2018-12-21T03:19:42.462Z,1018.55
2018-12-21T03:20:42.544Z,1018.56
2018-12-21T03:21:42.452Z,1018.53
2018-12-21T03:22:42.458Z,1018.54
2018-12-21T03:23:42.412Z,1018.51
2018-12-21T03:24:42.691Z,1018.47
2018-12-21T03:25:42.402Z,1018.5
2018-12-21T03:26:42.415Z,1018.48
2018-12-21T03:27:42.591Z,1018.48
2018-12-21T03:28:42.298Z,1018.38
2018-12-21T03:29:42.969Z,1018.38
2018-12-21T03:30:42.834Z,1018.39
2018-12-21T03:31:42.704Z,1018.31
2018-12-21T03:32:42.340Z,1018.3
2018-12-21T03:33:42.650Z,1018.25
2018-12-21T03:34:42.521Z,1018.3
2018-12-21T03:35:42.507Z,1018.17
2018-12-21T03:36:42.881Z,1018.15
2018-12-21T03:37:42.867Z,1018.18
2018-12-21T03:38:42.608Z,1018.13
2018-12-21T03:39:42.767Z,1018.11
2018-12-21T03:40:43.169Z,1018.08
2018-12-21T03:41:42.196Z,1018.04
2018-12-21T03:42:43.149Z,1017.94
2018-12-21T03:43:42.300Z,1017.92
2018-12-21T03:44:42.186Z,1017.89
2018-12-21T03:45:42.616Z,1017.84
2018-12-21T03:46:42.421Z,1017.83
2018-12-21T03:47:42.629Z,1017.83
2018-12-21T03:48:42.726Z,1017.75
2018-12-21T03:49:42.532Z,1017.74
2018-12-21T03:50:42.497Z,1017.71
2018-12-21T03:51:42.241Z,1017.68
2018-12-21T03:52:42.709Z,1017.63
2018-12-21T03:53:42.301Z,1017.56
2018-12-21T03:54:42.669Z,1017.55
2018-12-21T03:55:42.185Z,1017.56
2018-12-21T03:56:42.392Z,1017.61
2018-12-21T03:57:42.557Z,1017.66
2018-12-21T03:58:42.258Z,1017.66
2018-12-21T03:59:42.087Z,1017.65
2018-12-21T04:00:42.566Z,1017.57
2018-12-21T04:01:42.723Z,1017.58
2018-12-21T04:02:42.265Z,1017.59
2018-12-21T04:03:42.790Z,1017.59
2018-12-21T04:04:42.564Z,1017.55
2018-12-21T04:05:42.377Z,1017.48
2018-12-21T04:06:42.245Z,1017.52
2018-12-21T04:07:42.798Z,1017.56
2018-12-21T04:08:42.219Z,1017.58
2018-12-21T04:09:42.384Z,1017.56
2018-12-21T04:10:42.437Z,1017.51
2018-12-21T04:11:42.259Z,1017.55
2018-12-21T04:12:42.697Z,1017.48
2018-12-21T04:13:42.349Z,1017.46
2018-12-21T04:14:42.367Z,1017.43
2018-12-21T04:15:42.549Z,1017.47
2018-12-21T04:16:42.355Z,1017.47
2018-12-21T04:17:42.135Z,1017.49
2018-12-21T04:18:42.392Z,1017.48
2018-12-21T04:19:42.210Z,1017.44
2018-12-21T04:20:42.367Z,1017.42
2018-12-21T04:21:42.653Z,1017.39
2018-12-21T04:22:42.293Z,1017.39
2018-12-21T04:23:42.457Z,1017.36
2018-12-21T04:24:42.175Z,1017.31
2018-12-21T04:25:42.683Z,1017.35
2018-12-21T04:26:42.383Z,1017.36
2018-12-21T04:27:42.398Z,1017.35
2018-12-21T04:28:42.228Z,1017.4
2018-12-21T04:29:42.325Z,1017.38
2018-12-21T04:30:42.474Z,1017.33
2018-12-21T04:31:42.517Z,1017.38
2018-12-21T04:32:42.343Z,1017.32
2018-12-21T04:33:42.223Z,1017.34
2018-12-21T04:34:42.476Z,1017.34
2018-12-21T04:35:42.497Z,1017.34
2018-12-21T04:36:42.586Z,1017.3
2018-12-21T04:37:42.355Z,1017.26
2018-12-21T04:38:42.249Z,1017.22
2018-12-21T04:39:42.773Z,1017.23
2018-12-21T04:40:42.693Z,1017.23
2018-12-21T04:41:42.199Z,1017.21
2018-12-21T04:42:42.313Z,1017.18
2018-12-21T04:43:42.254Z,1017.16
2018-12-21T04:44:42.260Z,1017.13
2018-12-21T04:45:42.644Z,1017.13
2018-12-21T04:46:42.115Z,1017.09
2018-12-21T04:47:42.496Z,1017.07
2018-12-21T04:48:43.246Z,1016.98
2018-12-21T04:49:42.290Z,1017.01
2018-12-21T04:50:42.558Z,1017.01
2018-12-21T04:51:43.168Z,1017
2018-12-21T04:52:43.834Z,1016.97
2018-12-21T04:53:42.407Z,1016.9
2018-12-21T04:54:42.794Z,1016.96
2018-12-21T04:55:42.606Z,1016.92
2018-12-21T04:56:43.010Z,1016.89
2018-12-21T04:57:42.720Z,1016.85
2018-12-21T04:58:42.813Z,1016.82
2018-12-21T04:59:42.721Z,1016.84
2018-12-21T05:00:42.274Z,1016.82
2018-12-21T05:01:42.484Z,1016.77
2018-12-21T05:02:42.429Z,1016.75
2018-12-21T05:03:42.647Z,1016.76
2018-12-21T05:04:42.079Z,1016.74
2018-12-21T05:05:42.602Z,1016.77
2018-12-21T05:06:42.976Z,1016.82
2018-12-21T05:07:42.322Z,1016.79
2018-12-21T05:08:42.399Z,1016.72
2018-12-21T05:09:42.214Z,1016.71
2018-12-21T05:10:42.371Z,1016.72
2018-12-21T05:11:42.230Z,1016.7
2018-12-21T05:12:42.527Z,1016.68
2018-12-21T05:13:42.160Z,1016.71
2018-12-21T05:14:42.508Z,1016.66
2018-12-21T05:15:42.381Z,1016.66
2018-12-21T05:16:42.265Z,1016.7
2018-12-21T05:17:42.683Z,1016.68
2018-12-21T05:18:42.178Z,1016.68
2018-12-21T05:19:42.488Z,1016.69
2018-12-21T05:20:42.192Z,1016.67
2018-12-21T05:21:42.361Z,1016.64
2018-12-21T05:22:42.358Z,1016.65
2018-12-21T05:23:42.274Z,1016.62
2018-12-21T05:24:42.818Z,1016.6
2018-12-21T05:25:42.287Z,1016.59
2018-12-21T05:26:42.871Z,1016.56
2018-12-21T05:27:42.140Z,1016.6
2018-12-21T05:28:42.249Z,1016.56
2018-12-21T05:29:42.379Z,1016.55
2018-12-21T05:30:42.419Z,1016.57
2018-12-21T05:31:42.328Z,1016.5
2018-12-21T05:32:42.846Z,1016.54
2018-12-21T05:33:42.777Z,1016.53
2018-12-21T05:34:42.723Z,1016.49
2018-12-21T05:35:42.270Z,1016.46
2018-12-21T05:36:42.116Z,1016.44
2018-12-21T05:37:42.415Z,1016.47
2018-12-21T05:38:42.422Z,1016.47
2018-12-21T05:39:42.395Z,1016.46
2018-12-21T05:40:42.405Z,1016.37
2018-12-21T05:41:42.258Z,1016.41
2018-12-21T05:42:42.521Z,1016.38
2018-12-21T05:43:42.175Z,1016.37
2018-12-21T05:44:42.531Z,1016.37
2018-12-21T05:45:42.680Z,1016.38
2018-12-21T05:46:42.347Z,1016.35
2018-12-21T05:47:42.026Z,1016.33
2018-12-21T05:48:42.700Z,1016.34
2018-12-21T05:49:42.303Z,1016.36
2018-12-21T05:50:42.794Z,1016.27
2018-12-21T05:51:42.365Z,1016.24
2018-12-21T05:52:42.300Z,1016.21
2018-12-21T05:53:42.402Z,1016.21
2018-12-21T05:54:42.437Z,1016.17
2018-12-21T05:55:42.281Z,1016.15
2018-12-21T05:56:42.313Z,1016.07
2018-12-21T05:57:42.286Z,1016.02
2018-12-21T05:58:42.325Z,1016.03
2018-12-21T05:59:42.537Z,1015.99
2018-12-21T06:00:42.746Z,1016
2018-12-21T06:01:42.306Z,1015.98
2018-12-21T06:02:42.755Z,1015.97
2018-12-21T06:03:42.228Z,1015.93
2018-12-21T06:04:42.468Z,1015.94
2018-12-21T06:05:42.108Z,1015.87
2018-12-21T06:06:42.270Z,1015.97
2018-12-21T06:07:42.260Z,1015.88
2018-12-21T06:08:42.401Z,1015.82
2018-12-21T06:09:42.713Z,1015.77
2018-12-21T06:10:42.309Z,1015.81
2018-12-21T06:11:42.900Z,1015.74
2018-12-21T06:12:42.418Z,1015.75
2018-12-21T06:13:42.526Z,1015.76
2018-12-21T06:14:42.225Z,1015.69
2018-12-21T06:15:42.389Z,1015.66
2018-12-21T06:16:42.112Z,1015.64
2018-12-21T06:17:42.360Z,1015.65
2018-12-21T06:18:42.160Z,1015.68
2018-12-21T06:19:42.474Z,1015.68
2018-12-21T06:20:42.418Z,1015.65
2018-12-21T06:21:42.347Z,1015.67
2018-12-21T06:22:42.281Z,1015.58
2018-12-21T06:23:42.500Z,1015.5
2018-12-21T06:24:42.195Z,1015.5
2018-12-21T06:25:43.408Z,1015.44
2018-12-21T06:26:42.728Z,1015.38
2018-12-21T06:27:42.426Z,1015.37
2018-12-21T06:28:42.543Z,1015.26
2018-12-21T06:29:42.448Z,1015.27
2018-12-21T06:30:42.303Z,1015.17
2018-12-21T06:31:42.854Z,1015.09
2018-12-21T06:32:42.451Z,1015.08
2018-12-21T06:33:42.491Z,1015.03
2018-12-21T06:34:42.097Z,1014.96
2018-12-21T06:35:42.326Z,1015
2018-12-21T06:36:42.089Z,1014.98
2018-12-21T06:37:42.612Z,1014.95
2018-12-21T06:38:43.016Z,1015
2018-12-21T06:39:42.897Z,1014.91
2018-12-21T06:40:42.372Z,1014.9
2018-12-21T06:41:42.430Z,1014.85
2018-12-21T06:42:42.548Z,1014.86
2018-12-21T06:43:42.785Z,1014.81
2018-12-21T06:44:42.192Z,1014.77
2018-12-21T06:45:42.398Z,1014.75
2018-12-21T06:46:42.633Z,1014.72
2018-12-21T06:47:43.022Z,1014.67
2018-12-21T06:48:42.079Z,1014.67
2018-12-21T06:49:42.321Z,1014.69
2018-12-21T06:50:42.574Z,1014.7
2018-12-21T06:51:42.302Z,1014.74
2018-12-21T06:52:42.822Z,1014.65
2018-12-21T06:53:42.523Z,1014.66
2018-12-21T06:54:42.609Z,1014.67
2018-12-21T06:55:42.522Z,1014.71
2018-12-21T06:56:42.317Z,1014.62
2018-12-21T06:57:42.106Z,1014.66
2018-12-21T06:58:42.348Z,1014.61
2018-12-21T06:59:42.184Z,1014.6
2018-12-21T07:00:42.261Z,1014.65
2018-12-21T07:01:42.662Z,1014.6
2018-12-21T07:02:42.168Z,1014.63
2018-12-21T07:03:42.699Z,1014.63
2018-12-21T07:04:42.295Z,1014.59
2018-12-21T07:05:42.607Z,1014.51
2018-12-21T07:06:42.081Z,1014.53
2018-12-21T07:07:42.268Z,1014.54
2018-12-21T07:08:42.384Z,1014.55
2018-12-21T07:09:42.089Z,1014.54
2018-12-21T07:10:42.349Z,1014.53
2018-12-21T07:11:42.182Z,1014.52
2018-12-21T07:12:42.565Z,1014.52
2018-12-21T07:13:42.693Z,1014.51
2018-12-21T07:14:42.266Z,1014.48
2018-12-21T07:15:42.966Z,1014.44
2018-12-21T07:16:42.222Z,1014.39
2018-12-21T07:17:42.109Z,1014.45
2018-12-21T07:18:42.510Z,1014.43
2018-12-21T07:19:42.409Z,1014.42
2018-12-21T07:20:42.404Z,1014.43
2018-12-21T07:21:42.342Z,1014.33
2018-12-21T07:22:42.195Z,1014.43
2018-12-21T07:23:42.758Z,1014.38
2018-12-21T07:24:42.101Z,1014.36
2018-12-21T07:25:42.351Z,1014.31
2018-12-21T07:26:42.156Z,1014.4
2018-12-21T07:27:42.269Z,1014.42
2018-12-21T07:28:42.143Z,1014.43
2018-12-21T07:29:42.063Z,1014.38
2018-12-21T07:30:42.411Z,1014.36
2018-12-21T07:31:42.194Z,1014.43
2018-12-21T07:32:42.332Z,1014.38
2018-12-21T07:33:42.262Z,1014.37
2018-12-21T07:34:42.214Z,1014.31
2018-12-21T07:35:43.027Z,1014.29
2018-12-21T07:36:42.717Z,1014.34
2018-12-21T07:37:42.150Z,1014.27
2018-12-21T07:38:42.222Z,1014.27
2018-12-21T07:39:42.110Z,1014.25
2018-12-21T07:40:42.208Z,1014.25
2018-12-21T07:41:42.390Z,1014.21
2018-12-21T07:42:42.449Z,1014.27
2018-12-21T07:43:42.335Z,1014.24
2018-12-21T07:44:42.196Z,1014.21
2018-12-21T07:45:42.351Z,1014.31
2018-12-21T07:46:42.369Z,1014.21
2018-12-21T07:47:42.202Z,1014.23
2018-12-21T07:48:42.363Z,1014.19
2018-12-21T07:49:42.393Z,1014.19
2018-12-21T07:50:42.365Z,1014.11
2018-12-21T07:51:42.318Z,1014.13
2018-12-21T07:52:42.208Z,1014.16
2018-12-21T07:53:42.222Z,1014.07
2018-12-21T07:54:42.452Z,1014.15
2018-12-21T07:55:42.295Z,1014.16
2018-12-21T07:56:42.200Z,1014.02
2018-12-21T07:57:42.250Z,1013.99
2018-12-21T07:58:42.113Z,1013.96
2018-12-21T07:59:42.322Z,1013.98
2018-12-21T08:00:42.130Z,1013.98
2018-12-21T08:01:42.227Z,1013.88
2018-12-21T08:02:42.175Z,1014
2018-12-21T08:03:42.692Z,1013.9
2018-12-21T08:04:42.692Z,1013.9
2018-12-21T08:05:42.699Z,1013.94
2018-12-21T08:06:42.686Z,1013.91
2018-12-21T08:07:42.155Z,1013.91
2018-12-21T08:08:42.529Z,1013.89
2018-12-21T08:09:42.195Z,1013.94
2018-12-21T08:10:42.435Z,1013.87
2018-12-21T08:11:42.669Z,1013.84
2018-12-21T08:12:42.241Z,1013.83
2018-12-21T08:13:42.662Z,1013.88
2018-12-21T08:14:42.248Z,1013.85
2018-12-21T08:15:43.204Z,1013.82
2018-12-21T08:16:42.534Z,1013.78
2018-12-21T08:17:42.258Z,1013.77
2018-12-21T08:18:42.320Z,1013.76
2018-12-21T08:19:42.524Z,1013.73
2018-12-21T08:20:42.367Z,1013.73
2018-12-21T08:21:42.328Z,1013.69
2018-12-21T08:22:42.833Z,1013.64
2018-12-21T08:23:44.732Z,1013.67
2018-12-21T08:24:42.456Z,1013.6
2018-12-21T08:25:42.747Z,1013.58
2018-12-21T08:26:42.370Z,1013.55
2018-12-21T08:27:42.490Z,1013.51
2018-12-21T08:28:42.026Z,1013.53
2018-12-21T08:29:42.716Z,1013.47
2018-12-21T08:30:42.192Z,1013.46
2018-12-21T08:31:42.159Z,1013.52
2018-12-21T08:32:42.153Z,1013.47
2018-12-21T08:33:42.249Z,1013.42
2018-12-21T08:34:42.567Z,1013.36
2018-12-21T08:35:42.425Z,1013.37
2018-12-21T08:36:42.346Z,1013.47
2018-12-21T08:37:42.536Z,1013.37
2018-12-21T08:38:42.454Z,1013.35
2018-12-21T08:39:42.430Z,1013.4
2018-12-21T08:40:42.864Z,1013.36
2018-12-21T08:41:42.129Z,1013.33
2018-12-21T08:42:42.800Z,1013.28
2018-12-21T08:43:42.193Z,1013.26
2018-12-21T08:44:42.653Z,1013.3
2018-12-21T08:45:42.369Z,1013.29
2018-12-21T08:46:42.347Z,1013.29
2018-12-21T08:47:42.250Z,1013.25
2018-12-21T08:48:42.178Z,1013.23
2018-12-21T08:49:42.327Z,1013.22
2018-12-21T08:50:41.974Z,1013.27
2018-12-21T08:51:42.650Z,1013.28
2018-12-21T08:52:42.692Z,1013.19
2018-12-21T08:53:42.345Z,1013.22
2018-12-21T08:54:42.448Z,1013.19
2018-12-21T08:55:42.117Z,1013.25
2018-12-21T08:56:42.223Z,1013.12
2018-12-21T08:57:42.327Z,1013.13
2018-12-21T08:58:42.243Z,1013.14
2018-12-21T08:59:42.965Z,1013.04
2018-12-21T09:00:42.700Z,1013.19
2018-12-21T09:01:42.245Z,1013.1
2018-12-21T09:02:42.100Z,1013.06
2018-12-21T09:03:42.245Z,1013.1
2018-12-21T09:04:42.720Z,1013.03
2018-12-21T09:05:42.663Z,1013.08
2018-12-21T09:06:42.251Z,1013.06
2018-12-21T09:07:42.190Z,1012.99
2018-12-21T09:08:41.936Z,1012.85
2018-12-21T09:09:42.149Z,1012.89
2018-12-21T09:10:42.887Z,1012.95
2018-12-21T09:11:42.520Z,1012.91
2018-12-21T09:12:42.234Z,1012.87
2018-12-21T09:13:42.291Z,1012.84
2018-12-21T09:14:42.333Z,1012.71
2018-12-21T09:15:42.703Z,1012.79
2018-12-21T09:16:42.610Z,1012.7
2018-12-21T09:17:42.241Z,1012.71
2018-12-21T09:18:42.521Z,1012.78
2018-12-21T09:19:42.441Z,1012.72
2018-12-21T09:20:42.377Z,1012.66
2018-12-21T09:21:42.437Z,1012.66
2018-12-21T09:22:42.359Z,1012.71
2018-12-21T09:23:42.134Z,1012.64
2018-12-21T09:24:42.358Z,1012.58
2018-12-21T09:25:42.147Z,1012.56
2018-12-21T09:26:42.010Z,1012.5
2018-12-21T09:27:42.113Z,1012.49
2018-12-21T09:28:42.259Z,1012.43
2018-12-21T09:29:42.718Z,1012.49
2018-12-21T09:30:42.838Z,1012.5
2018-12-21T09:31:42.195Z,1012.45
2018-12-21T09:32:42.158Z,1012.42
2018-12-21T09:33:42.670Z,1012.52
2018-12-21T09:34:42.396Z,1012.45
2018-12-21T09:35:42.343Z,1012.33
2018-12-21T09:36:43.260Z,1012.34
2018-12-21T09:37:42.261Z,1012.31
2018-12-21T09:38:42.208Z,1012.26
2018-12-21T09:39:42.209Z,1012.29
2018-12-21T09:40:42.596Z,1012.27
2018-12-21T09:41:42.138Z,1012.3
2018-12-21T09:42:42.393Z,1012.28
2018-12-21T09:43:42.701Z,1012.28
2018-12-21T09:44:42.002Z,1012.27
2018-12-21T09:45:42.752Z,1012.22
2018-12-21T09:46:42.610Z,1012.33
2018-12-21T09:47:42.511Z,1012.17
2018-12-21T09:48:42.088Z,1012.16
2018-12-21T09:49:42.302Z,1012.03
2018-12-21T09:50:42.547Z,1012.04
2018-12-21T09:51:42.581Z,1012.14
2018-12-21T09:52:42.332Z,1012.01
2018-12-21T09:53:41.985Z,1011.98
2018-12-21T09:54:42.447Z,1011.98
2018-12-21T09:55:43.322Z,1011.94
2018-12-21T09:56:42.109Z,1011.86
2018-12-21T09:57:42.285Z,1011.86
2018-12-21T09:58:42.430Z,1011.76
2018-12-21T09:59:42.243Z,1011.73
2018-12-21T10:00:42.447Z,1011.77
2018-12-21T10:01:42.300Z,1011.76
2018-12-21T10:02:42.325Z,1011.7
2018-12-21T10:03:42.842Z,1011.63
2018-12-21T10:04:42.743Z,1011.57
2018-12-21T10:05:42.295Z,1011.6
2018-12-21T10:06:42.460Z,1011.57
2018-12-21T10:07:42.158Z,1011.52
2018-12-21T10:08:42.703Z,1011.6
2018-12-21T10:09:42.238Z,1011.57
2018-12-21T10:10:42.386Z,1011.55
2018-12-21T10:11:42.078Z,1011.54
2018-12-21T10:12:42.243Z,1011.58
2018-12-21T10:13:42.267Z,1011.47
2018-12-21T10:14:42.143Z,1011.5
2018-12-21T10:15:42.252Z,1011.46
2018-12-21T10:16:42.431Z,1011.47
2018-12-21T10:17:42.447Z,1011.46
2018-12-21T10:18:42.518Z,1011.49
2018-12-21T10:19:42.573Z,1011.49
2018-12-21T10:20:42.161Z,1011.52
2018-12-21T10:21:42.184Z,1011.58
2018-12-21T10:22:42.281Z,1011.47
2018-12-21T10:23:42.128Z,1011.6
2018-12-21T10:24:42.389Z,1011.65
2018-12-21T10:25:42.880Z,1011.57
2018-12-21T10:26:42.345Z,1011.48
2018-12-21T10:27:42.177Z,1011.49
2018-12-21T10:28:42.342Z,1011.44
2018-12-21T10:29:42.444Z,1011.48
2018-12-21T10:30:42.019Z,1011.41
2018-12-21T10:31:42.127Z,1011.4
2018-12-21T10:32:42.046Z,1011.35
2018-12-21T10:33:42.468Z,1011.41
2018-12-21T10:34:42.194Z,1011.3
2018-12-21T10:35:42.772Z,1011.46
2018-12-21T10:36:43.001Z,1011.34
2018-12-21T10:37:42.292Z,1011.37
2018-12-21T10:38:42.103Z,1011.37
2018-12-21T10:39:42.337Z,1011.44
2018-12-21T10:40:42.699Z,1011.36
2018-12-21T10:41:42.213Z,1011.32
2018-12-21T10:42:42.096Z,1011.36
2018-12-21T10:43:42.287Z,1011.31
2018-12-21T10:44:42.991Z,1011.23
2018-12-21T10:45:42.188Z,1011.29
2018-12-21T10:46:42.517Z,1011.28
2018-12-21T10:47:42.278Z,1011.22
2018-12-21T10:48:42.587Z,1011.24
2018-12-21T10:49:42.097Z,1011.31
2018-12-21T10:50:42.376Z,1011.29
2018-12-21T10:51:42.193Z,1011.25
2018-12-21T10:52:42.408Z,1011.25
2018-12-21T10:53:42.051Z,1011.24
2018-12-21T10:54:42.202Z,1011.25
2018-12-21T10:55:42.349Z,1011.23
2018-12-21T10:56:41.911Z,1011.26
2018-12-21T10:57:42.558Z,1011.21
2018-12-21T10:58:42.033Z,1011.27
2018-12-21T10:59:43.910Z,1011.28
2018-12-21T11:00:42.227Z,1011.16
2018-12-21T11:01:42.153Z,1011.22
2018-12-21T11:02:42.403Z,1011.11
2018-12-21T11:03:42.168Z,1011.21
2018-12-21T11:04:42.564Z,1011.25
2018-12-21T11:05:43.176Z,1011.25
2018-12-21T11:06:42.185Z,1011.19
2018-12-21T11:07:42.055Z,1011.13
2018-12-21T11:08:42.301Z,1011.17
2018-12-21T11:09:42.858Z,1011.11
2018-12-21T11:10:42.044Z,1011.08
2018-12-21T11:11:42.278Z,1010.99
2018-12-21T11:12:42.041Z,1011.11
2018-12-21T11:13:42.270Z,1011.06
2018-12-21T11:14:42.006Z,1011.01
2018-12-21T11:15:42.192Z,1011.02
2018-12-21T11:16:42.101Z,1010.96
2018-12-21T11:17:44.244Z,1010.93
2018-12-21T11:18:42.399Z,1010.95
2018-12-21T11:19:42.274Z,1010.97
2018-12-21T11:20:42.025Z,1010.95
2018-12-21T11:21:42.920Z,1011.03
2018-12-21T11:22:42.162Z,1010.91
2018-12-21T11:23:42.206Z,1010.92
2018-12-21T11:24:42.007Z,1010.76
2018-12-21T11:25:42.411Z,1010.83
2018-12-21T11:26:43.398Z,1010.92
2018-12-21T11:27:42.348Z,1010.87
2018-12-21T11:28:42.438Z,1010.89
2018-12-21T11:29:42.587Z,1010.9
2018-12-21T11:30:42.301Z,1011
2018-12-21T11:31:42.121Z,1010.86
2018-12-21T11:32:42.460Z,1010.94
2018-12-21T11:33:43.663Z,1010.93
2018-12-21T11:34:42.105Z,1011
2018-12-21T11:35:42.463Z,1010.93
2018-12-21T11:36:42.208Z,1010.88
2018-12-21T11:37:42.783Z,1010.83
2018-12-21T11:38:42.170Z,1010.83
2018-12-21T11:39:42.377Z,1010.76
2018-12-21T11:40:42.447Z,1010.78
2018-12-21T11:41:42.646Z,1010.8
2018-12-21T11:42:42.337Z,1010.93
2018-12-21T11:43:42.409Z,1010.86
2018-12-21T11:44:42.152Z,1010.83
2018-12-21T11:45:42.948Z,1010.83
2018-12-21T11:46:42.618Z,1010.81
2018-12-21T11:47:42.501Z,1010.74
2018-12-21T11:48:42.645Z,1010.72
2018-12-21T11:49:42.620Z,1010.74
2018-12-21T11:50:42.283Z,1010.68
2018-12-21T11:51:42.448Z,1010.76
2018-12-21T11:52:42.199Z,1010.81
2018-12-21T11:53:42.215Z,1010.79
2018-12-21T11:54:44.661Z,1010.82
2018-12-21T11:55:42.606Z,1010.79
2018-12-21T11:56:42.378Z,1010.77
2018-12-21T11:57:42.182Z,1010.73
2018-12-21T11:58:42.466Z,1010.72
2018-12-21T11:59:45.370Z,1010.76
2018-12-21T12:00:42.202Z,1010.77
2018-12-21T12:01:42.518Z,1010.79
2018-12-21T12:02:43.095Z,1010.75
2018-12-21T12:03:42.630Z,1010.66
2018-12-21T12:04:42.153Z,1010.69
2018-12-21T12:05:42.921Z,1010.65
2018-12-21T12:06:42.092Z,1010.67
2018-12-21T12:07:41.921Z,1010.74
2018-12-21T12:08:42.420Z,1010.71